Anchor Point, Alaska
Current Conditions -  °F | °C
As of 8:53 AM on Tuesday 27 Jan 2015 (Local Time) from PAHO Reporting Station
Overcast Overcast  
Wind Chill: 24°   Ceiling: 4900
Heat Index: 24°   Visibility: 9mi
Dew Point: 19°   Wind: 0mph
Humidity: 81%   Direction: NA
Pressure: 29.88"   Gusts: NA
Location:  59.77°N, 151.82°W
Report Text: PAHO 271753Z 00000KT 9SM FEW015 SCT030 OVC049 M04/M07 A2988 RMK SNE50 SLP118 P0000 60000 T10441072 11044 21067 53005 VIA AUTODIAL
Loading
Personal Weather Stations






























Interactive Weather Map New forecast layout! Learn more

10-Day Weather Forecast

Advertisements
Track Severe Weather on mobile